Time;durP1;ratioP1;P1;durP2;ratioP2;P2;SDS_P1;SDS_P2;PMS_P1;PMS_P2;Temp;Humidity;BMP_temperature;BMP_pressure;BME280_temperature;BME280_humidity;BME280_pressure;Samples;Min_cycle;Max_cycle;Signal;HPM_P1;HPM_P2
2023/10/26 00:02:54;;;;;;;104.10;48.67;;;;;;;;;;10069358;28;20475;-79
2023/10/26 00:07:46;;;;;;;107.97;47.45;;;;;;;;;;10048938;28;20108;-80
2023/10/26 00:12:37;;;;;;;98.88;43.90;;;;;;;;;;10032231;28;20045;-78
2023/10/26 00:17:29;;;;;;;86.32;41.42;;;;;;;;;;10054543;28;20042;-79
2023/10/26 00:22:22;;;;;;;108.00;44.47;;;;;;;;;;10048787;28;20050;-79
2023/10/26 00:27:14;;;;;;;103.20;43.67;;;;;;;;;;10057984;28;20126;-78
2023/10/26 00:32:09;;;;;;;104.82;46.30;;;;;;;;;;10053317;28;20041;-79
2023/10/26 00:37:02;;;;;;;100.75;46.13;;;;;;;;;;10043165;28;20056;-80
2023/10/26 00:41:54;;;;;;;128.63;49.10;;;;;;;;;;10043102;28;20076;-80
2023/10/26 00:46:47;;;;;;;133.52;48.17;;;;;;;;;;10042513;28;20048;-78
2023/10/26 00:51:40;;;;;;;119.50;50.88;;;;;;;;;;10052278;28;20039;-77
2023/10/26 00:56:33;;;;;;;142.40;47.88;;;;;;;;;;10055820;28;20064;-79
2023/10/26 01:01:26;;;;;;;103.43;47.72;;;;;;;;;;10041378;28;20053;-78
2023/10/26 01:06:18;;;;;;;92.90;43.42;;;;;;;;;;10041728;28;20133;-79
2023/10/26 01:11:10;;;;;;;149.93;52.10;;;;;;;;;;10043616;28;20135;-80
2023/10/26 01:16:04;;;;;;;122.40;51.67;;;;;;;;;;10030926;28;20108;-79
2023/10/26 01:20:56;;;;;;;123.80;48.92;;;;;;;;;;10027718;28;20380;-80
2023/10/26 01:25:53;;;;;;;196.75;55.00;;;;;;;;;;10029186;28;20464;-79
2023/10/26 01:30:45;;;;;;;236.73;56.10;;;;;;;;;;10028233;28;20045;-79
2023/10/26 01:35:40;;;;;;;249.50;59.45;;;;;;;;;;10045032;28;20049;-79
2023/10/26 01:40:33;;;;;;;181.52;56.53;;;;;;;;;;10043648;28;20042;-80
2023/10/26 01:45:25;;;;;;;139.02;52.20;;;;;;;;;;10029694;28;20045;-79
2023/10/26 01:50:17;;;;;;;182.80;54.42;;;;;;;;;;10026887;28;20132;-79
2023/10/26 01:55:09;;;;;;;213.13;58.83;;;;;;;;;;10027535;28;20065;-80
2023/10/26 02:00:03;;;;;;;329.13;55.13;;;;;;;;;;10026961;28;20038;-79
2023/10/26 02:05:03;;;;;;;305.35;59.67;;;;;;;;;;10029707;28;20468;-79
2023/10/26 02:09:55;;;;;;;451.88;66.97;;;;;;;;;;10043724;28;20149;-79
2023/10/26 02:14:49;;;;;;;302.80;63.13;;;;;;;;;;10026828;28;20045;-79
2023/10/26 02:19:41;;;;;;;261.25;60.42;;;;;;;;;;10025912;28;20050;-79
2023/10/26 02:24:33;;;;;;;248.20;56.35;;;;;;;;;;10028954;28;20064;-79
2023/10/26 02:29:25;;;;;;;407.85;61.40;;;;;;;;;;10025513;28;20077;-79
2023/10/26 02:34:17;;;;;;;293.63;59.60;;;;;;;;;;10030866;28;20226;-78
2023/10/26 02:39:08;;;;;;;211.40;52.05;;;;;;;;;;10064225;28;20115;-79
2023/10/26 02:44:02;;;;;;;226.90;58.55;;;;;;;;;;10065462;28;20088;-79
2023/10/26 02:48:54;;;;;;;156.07;53.80;;;;;;;;;;10080070;28;20362;-79
2023/10/26 02:53:46;;;;;;;213.38;57.75;;;;;;;;;;10057162;28;20120;-79
2023/10/26 02:58:39;;;;;;;221.23;53.58;;;;;;;;;;10060572;28;20053;-80
2023/10/26 03:03:30;;;;;;;259.10;54.05;;;;;;;;;;10027094;28;20471;-77
2023/10/26 03:08:23;;;;;;;400.23;62.80;;;;;;;;;;10026487;28;20040;-79
2023/10/26 03:13:15;;;;;;;459.13;62.38;;;;;;;;;;10034423;28;20104;-80
2023/10/26 03:18:06;;;;;;;603.17;74.35;;;;;;;;;;10048484;28;20046;-79
2023/10/26 03:22:59;;;;;;;412.85;63.30;;;;;;;;;;10034722;28;20046;-79
2023/10/26 03:27:51;;;;;;;238.80;58.53;;;;;;;;;;10033523;28;20087;-79
2023/10/26 03:32:44;;;;;;;239.43;51.58;;;;;;;;;;10034368;28;20594;-79
2023/10/26 03:37:37;;;;;;;135.20;51.90;;;;;;;;;;10034567;28;20048;-78
2023/10/26 03:42:28;;;;;;;150.43;47.00;;;;;;;;;;10033052;28;20242;-79
2023/10/26 03:47:20;;;;;;;117.68;41.95;;;;;;;;;;10033161;28;20049;-80
2023/10/26 03:52:12;;;;;;;72.13;35.42;;;;;;;;;;10031736;28;20068;-80
2023/10/26 03:57:06;;;;;;;80.10;35.33;;;;;;;;;;10030653;28;20049;-78
2023/10/26 04:01:58;;;;;;;86.47;38.20;;;;;;;;;;10033152;28;20045;-79
2023/10/26 04:06:50;;;;;;;75.18;34.45;;;;;;;;;;10032023;28;20060;-79
2023/10/26 04:11:44;;;;;;;72.45;33.08;;;;;;;;;;10032806;28;20045;-76
2023/10/26 04:16:36;;;;;;;80.28;36.92;;;;;;;;;;10031796;28;20133;-79
2023/10/26 04:21:28;;;;;;;89.50;56.63;;;;;;;;;;10032374;28;20046;-79
2023/10/26 04:26:20;;;;;;;84.53;35.22;;;;;;;;;;10034448;28;20093;-77
2023/10/26 04:31:12;;;;;;;84.13;34.72;;;;;;;;;;10031201;28;20049;-79
2023/10/26 04:36:06;;;;;;;68.40;31.98;;;;;;;;;;10041422;28;20049;-79
2023/10/26 04:40:59;;;;;;;65.00;30.48;;;;;;;;;;10031278;28;20088;-79
2023/10/26 04:45:51;;;;;;;73.13;36.95;;;;;;;;;;10030157;28;20045;-79
2023/10/26 04:50:43;;;;;;;104.43;37.95;;;;;;;;;;10030334;28;20452;-79
2023/10/26 04:55:35;;;;;;;96.93;40.13;;;;;;;;;;10029912;28;20366;-79
2023/10/26 05:00:27;;;;;;;193.77;41.78;;;;;;;;;;10030492;28;20049;-78
2023/10/26 05:05:19;;;;;;;245.98;45.28;;;;;;;;;;10064247;28;20394;-77
2023/10/26 05:10:11;;;;;;;145.82;43.55;;;;;;;;;;10066787;28;20053;-79
2023/10/26 05:15:04;;;;;;;101.30;41.88;;;;;;;;;;10066549;28;20053;-79
2023/10/26 05:19:59;;;;;;;168.05;41.65;;;;;;;;;;10066201;28;20049;-77
2023/10/26 05:24:51;;;;;;;122.53;38.50;;;;;;;;;;10064831;28;20080;-79
2023/10/26 05:29:43;;;;;;;104.25;39.05;;;;;;;;;;10063936;28;20360;-76
2023/10/26 05:34:35;;;;;;;108.68;40.33;;;;;;;;;;10063434;28;20049;-78
2023/10/26 05:39:27;;;;;;;79.45;30.50;;;;;;;;;;10062551;28;20060;-78
2023/10/26 05:44:18;;;;;;;74.78;31.33;;;;;;;;;;10040709;28;20156;-77
2023/10/26 05:49:10;;;;;;;67.65;32.53;;;;;;;;;;10062226;28;20052;-78
2023/10/26 05:54:02;;;;;;;161.80;37.97;;;;;;;;;;10030638;28;20057;-76
2023/10/26 05:58:54;;;;;;;134.95;38.95;;;;;;;;;;10031425;28;20435;-76
2023/10/26 06:03:46;;;;;;;77.93;33.33;;;;;;;;;;10023242;28;20042;-77
2023/10/26 06:08:39;;;;;;;151.40;38.33;;;;;;;;;;10025154;28;20074;-77
2023/10/26 06:13:30;;;;;;;142.00;42.80;;;;;;;;;;10031038;28;20136;-78
2023/10/26 06:18:22;;;;;;;100.20;38.03;;;;;;;;;;10025817;28;20522;-77
2023/10/26 06:23:14;;;;;;;170.00;42.67;;;;;;;;;;10023677;28;20045;-77
2023/10/26 06:28:06;;;;;;;98.95;40.40;;;;;;;;;;10025427;28;20058;-77
2023/10/26 06:33:00;;;;;;;101.55;37.67;;;;;;;;;;10025026;28;20049;-78
2023/10/26 06:37:52;;;;;;;91.43;36.83;;;;;;;;;;10025359;28;20092;-78
2023/10/26 06:42:44;;;;;;;96.38;41.13;;;;;;;;;;10027451;28;20038;-78
2023/10/26 06:47:36;;;;;;;122.55;42.10;;;;;;;;;;10030254;28;20088;-78
2023/10/26 06:52:28;;;;;;;120.80;37.10;;;;;;;;;;10033269;28;20042;-78
2023/10/26 06:57:20;;;;;;;85.82;35.33;;;;;;;;;;10032848;28;20435;-77
2023/10/26 07:02:12;;;;;;;71.20;34.47;;;;;;;;;;10031451;28;20126;-78
2023/10/26 07:07:04;;;;;;;101.97;35.10;;;;;;;;;;10031708;28;20072;-76
2023/10/26 07:11:56;;;;;;;93.25;38.22;;;;;;;;;;10032964;28;20058;-78
2023/10/26 07:16:48;;;;;;;70.00;31.40;;;;;;;;;;10031972;28;20038;-78
2023/10/26 07:21:43;;;;;;;68.10;32.58;;;;;;;;;;10031449;28;20108;-78
2023/10/26 07:26:35;;;;;;;81.47;33.33;;;;;;;;;;10031973;28;20460;-78
2023/10/26 07:31:26;;;;;;;64.18;32.65;;;;;;;;;;10031563;28;20049;-78
2023/10/26 07:36:19;;;;;;;67.13;33.55;;;;;;;;;;10046306;28;20041;-77
2023/10/26 07:41:13;;;;;;;53.50;28.70;;;;;;;;;;10031109;28;20428;-78
2023/10/26 07:46:05;;;;;;;69.63;31.75;;;;;;;;;;10033211;28;20484;-78
2023/10/26 07:50:57;;;;;;;74.07;33.53;;;;;;;;;;10031392;28;20042;-78
2023/10/26 07:55:50;;;;;;;67.28;35.13;;;;;;;;;;10031986;28;20069;-78
2023/10/26 08:00:42;;;;;;;64.65;34.40;;;;;;;;;;10029019;28;20051;-78
2023/10/26 08:05:34;;;;;;;75.07;37.28;;;;;;;;;;10029169;28;20447;-78
2023/10/26 08:10:26;;;;;;;62.30;33.58;;;;;;;;;;10031639;28;20054;-78
2023/10/26 08:15:18;;;;;;;68.50;39.45;;;;;;;;;;10029729;28;20349;-78
2023/10/26 08:20:30;;;;;;;61.10;32.05;;;;;;;;;;10041307;28;20066;-77
2023/10/26 08:25:22;;;;;;;62.88;34.17;;;;;;;;;;10028317;28;20136;-77
2023/10/26 08:30:16;;;;;;;61.08;34.25;;;;;;;;;;10027450;28;20432;-76
2023/10/26 08:35:08;;;;;;;62.22;37.13;;;;;;;;;;10027874;28;20071;-77
2023/10/26 08:40:00;;;;;;;62.92;35.28;;;;;;;;;;10048936;28;20099;-77
2023/10/26 08:44:54;;;;;;;60.85;35.15;;;;;;;;;;10028748;28;20050;-77
2023/10/26 08:49:49;;;;;;;57.72;32.60;;;;;;;;;;10043162;28;20060;-77
2023/10/26 08:54:59;;;;;;;52.17;31.10;;;;;;;;;;10033835;28;20049;-77
2023/10/26 08:59:51;;;;;;;63.30;32.58;;;;;;;;;;10050001;28;20095;-77
2023/10/26 09:05:02;;;;;;;64.53;32.72;;;;;;;;;;10041465;28;20807;-77
2023/10/26 09:09:58;;;;;;;72.72;33.97;;;;;;;;;;10040570;28;20042;-77
2023/10/26 09:15:03;;;;;;;64.68;37.55;;;;;;;;;;10034789;28;20115;-77
2023/10/26 09:19:55;;;;;;;72.55;36.25;;;;;;;;;;10030196;28;20096;-77
2023/10/26 09:24:47;;;;;;;82.00;36.20;;;;;;;;;;10025900;28;20046;-76
2023/10/26 09:29:40;;;;;;;82.85;37.55;;;;;;;;;;10029493;28;20129;-77
2023/10/26 09:34:41;;;;;;;69.80;36.95;;;;;;;;;;10026587;28;20095;-77
2023/10/26 09:39:36;;;;;;;82.63;33.95;;;;;;;;;;10027086;28;20376;-78
2023/10/26 09:44:28;;;;;;;64.10;34.30;;;;;;;;;;10041030;28;20053;-76
2023/10/26 09:49:22;;;;;;;80.10;34.45;;;;;;;;;;10025134;28;20415;-76
2023/10/26 09:54:15;;;;;;;70.45;33.75;;;;;;;;;;10025188;28;20530;-77
2023/10/26 09:59:07;;;;;;;69.15;33.85;;;;;;;;;;10041036;28;20096;-76
2023/10/26 10:03:59;;;;;;;59.97;33.80;;;;;;;;;;10050088;28;20140;-77
2023/10/26 10:09:01;;;;;;;58.00;30.52;;;;;;;;;;10041559;28;20038;-77
2023/10/26 10:13:53;;;;;;;54.35;28.65;;;;;;;;;;10032176;28;20081;-77
2023/10/26 10:19:22;;;;;;;53.80;30.13;;;;;;;;;;10023799;28;20037;-75
2023/10/26 10:24:39;;;;;;;59.10;32.50;;;;;;;;;;10025389;28;20042;-77
2023/10/26 10:29:31;;;;;;;55.83;31.30;;;;;;;;;;10034761;28;20049;-78
2023/10/26 10:34:24;;;;;;;61.67;33.50;;;;;;;;;;10026579;28;20104;-77
2023/10/26 10:39:24;;;;;;;69.13;36.97;;;;;;;;;;10042249;28;20119;-78
2023/10/26 10:44:17;;;;;;;73.03;40.00;;;;;;;;;;10024433;28;20074;-77
2023/10/26 10:49:09;;;;;;;72.50;38.17;;;;;;;;;;10023993;28;20124;-77
2023/10/26 10:54:03;;;;;;;58.97;36.03;;;;;;;;;;10030865;28;20108;-78
2023/10/26 10:59:26;;;;;;;55.60;32.58;;;;;;;;;;10023306;28;20042;-78
2023/10/26 11:04:21;;;;;;;54.38;33.17;;;;;;;;;;10023101;28;20038;-77
2023/10/26 11:09:27;;;;;;;45.38;30.50;;;;;;;;;;10021994;28;20042;-78
2023/10/26 11:14:20;;;;;;;49.13;30.58;;;;;;;;;;10028757;28;20076;-78
2023/10/26 11:19:12;;;;;;;49.08;32.90;;;;;;;;;;10031303;28;20048;-77
2023/10/26 11:24:04;;;;;;;49.10;34.05;;;;;;;;;;10027269;28;20160;-77
2023/10/26 11:28:56;;;;;;;53.95;36.40;;;;;;;;;;10031716;28;20072;-78
2023/10/26 11:33:53;;;;;;;52.17;32.50;;;;;;;;;;10053690;28;20474;-78
2023/10/26 11:38:49;;;;;;;52.97;34.67;;;;;;;;;;10060489;28;20410;-78
2023/10/26 11:43:41;;;;;;;48.20;32.65;;;;;;;;;;10043700;28;20460;-77
2023/10/26 11:48:33;;;;;;;48.05;31.17;;;;;;;;;;10049591;28;20471;-77
2023/10/26 11:53:26;;;;;;;51.33;34.85;;;;;;;;;;10037875;28;20100;-76
2023/10/26 11:58:18;;;;;;;51.45;34.33;;;;;;;;;;10029235;28;20046;-77
2023/10/26 12:03:10;;;;;;;50.13;34.55;;;;;;;;;;10031855;28;20130;-78
2023/10/26 12:08:02;;;;;;;50.88;34.90;;;;;;;;;;10048925;28;20041;-78
2023/10/26 12:12:58;;;;;;;53.03;34.67;;;;;;;;;;10063943;28;20111;-76
2023/10/26 12:17:51;;;;;;;53.63;34.05;;;;;;;;;;10051592;28;20074;-77
2023/10/26 12:22:43;;;;;;;56.10;35.63;;;;;;;;;;10036539;28;20112;-78
2023/10/26 12:27:35;;;;;;;61.53;36.88;;;;;;;;;;10045884;28;20048;-78
2023/10/26 12:32:47;;;;;;;70.50;47.17;;;;;;;;;;10038638;28;20630;-78
2023/10/26 12:37:38;;;;;;;70.80;42.88;;;;;;;;;;10030294;28;20073;-79
2023/10/26 12:42:30;;;;;;;72.80;46.20;;;;;;;;;;10031025;28;20128;-79
2023/10/26 12:47:22;;;;;;;77.15;49.10;;;;;;;;;;10029619;28;20056;-77
2023/10/26 12:52:14;;;;;;;74.70;47.72;;;;;;;;;;10027600;28;20444;-78
2023/10/26 12:57:06;;;;;;;84.32;50.10;;;;;;;;;;10036315;28;20038;-79
2023/10/26 13:01:58;;;;;;;70.63;41.65;;;;;;;;;;10038410;28;20146;-79
2023/10/26 13:06:50;;;;;;;71.38;43.38;;;;;;;;;;10037734;28;20506;-79
2023/10/26 13:11:42;;;;;;;72.72;45.67;;;;;;;;;;10031253;28;20475;-79
2023/10/26 13:16:34;;;;;;;65.35;43.95;;;;;;;;;;10025750;28;20359;-79
2023/10/26 13:21:46;;;;;;;69.68;42.85;;;;;;;;;;10035099;28;20034;-79
2023/10/26 13:26:38;;;;;;;50.13;32.55;;;;;;;;;;10026925;28;20034;-79
2023/10/26 13:31:30;;;;;;;47.97;34.72;;;;;;;;;;10039963;28;20080;-79
2023/10/26 13:36:22;;;;;;;59.80;39.00;;;;;;;;;;10046721;28;20100;-79
2023/10/26 13:41:14;;;;;;;46.80;31.50;;;;;;;;;;10043019;28;20050;-79
2023/10/26 13:46:06;;;;;;;36.45;26.67;;;;;;;;;;10045844;28;20041;-78
2023/10/26 13:50:57;;;;;;;54.28;34.92;;;;;;;;;;10035794;28;20403;-78
2023/10/26 13:55:49;;;;;;;50.10;34.85;;;;;;;;;;10034449;28;20049;-77
2023/10/26 14:00:41;;;;;;;49.83;35.85;;;;;;;;;;10025879;28;20460;-77
2023/10/26 14:05:37;;;;;;;53.85;34.25;;;;;;;;;;10034781;28;20121;-77
2023/10/26 14:10:29;;;;;;;46.78;33.10;;;;;;;;;;10033872;28;20548;-76
2023/10/26 14:15:21;;;;;;;50.03;32.67;;;;;;;;;;10038767;28;20049;-74
2023/10/26 14:20:13;;;;;;;54.17;35.20;;;;;;;;;;10037965;28;20117;-76
2023/10/26 14:25:05;;;;;;;61.60;39.38;;;;;;;;;;10047551;28;20049;-76
2023/10/26 14:29:57;;;;;;;59.75;39.08;;;;;;;;;;10024358;28;20049;-77
2023/10/26 14:34:49;;;;;;;76.25;45.42;;;;;;;;;;10033542;28;20049;-76
2023/10/26 14:39:41;;;;;;;76.82;48.08;;;;;;;;;;10036207;28;20064;-76
2023/10/26 14:44:33;;;;;;;85.05;51.10;;;;;;;;;;10041632;28;20232;-76
2023/10/26 14:49:25;;;;;;;85.85;47.95;;;;;;;;;;10028501;28;20096;-74
2023/10/26 14:54:19;;;;;;;95.45;53.85;;;;;;;;;;10024064;28;20077;-76
2023/10/26 14:59:11;;;;;;;90.32;53.85;;;;;;;;;;10024122;28;20747;-75
2023/10/26 15:04:05;;;;;;;90.78;52.78;;;;;;;;;;10029061;28;20069;-78
2023/10/26 15:08:57;;;;;;;99.22;58.55;;;;;;;;;;10030614;28;20050;-77
2023/10/26 15:13:48;;;;;;;86.63;48.47;;;;;;;;;;10037283;28;20046;-75
2023/10/26 15:18:41;;;;;;;101.63;57.05;;;;;;;;;;10031632;28;20421;-75
2023/10/26 15:23:33;;;;;;;107.15;58.72;;;;;;;;;;10030917;28;20404;-75
2023/10/26 15:28:24;;;;;;;107.22;59.33;;;;;;;;;;10030658;28;20408;-76
2023/10/26 15:33:17;;;;;;;104.82;57.28;;;;;;;;;;10030756;28;20072;-76
2023/10/26 15:38:09;;;;;;;117.00;64.28;;;;;;;;;;10030618;28;20046;-76
2023/10/26 15:43:01;;;;;;;107.90;58.55;;;;;;;;;;10030875;28;20153;-76
2023/10/26 15:47:53;;;;;;;99.82;57.08;;;;;;;;;;10042293;28;20100;-74
2023/10/26 15:52:58;;;;;;;97.05;52.25;;;;;;;;;;10036490;28;20460;-76
2023/10/26 15:57:50;;;;;;;94.68;52.78;;;;;;;;;;10031576;28;20551;-75
2023/10/26 16:02:44;;;;;;;89.88;51.15;;;;;;;;;;10029169;28;20046;-79
2023/10/26 16:07:36;;;;;;;79.30;45.25;;;;;;;;;;10043856;28;20056;-76
2023/10/26 16:12:28;;;;;;;75.07;44.70;;;;;;;;;;10027584;28;20046;-75
2023/10/26 16:17:20;;;;;;;63.40;37.95;;;;;;;;;;10028227;28;20077;-76
2023/10/26 16:22:12;;;;;;;72.53;40.97;;;;;;;;;;10043367;28;20136;-75
2023/10/26 16:27:04;;;;;;;61.55;38.03;;;;;;;;;;10028683;28;20804;-77
2023/10/26 16:31:56;;;;;;;67.22;38.13;;;;;;;;;;10027791;28;20064;-75
2023/10/26 16:36:48;;;;;;;72.40;41.58;;;;;;;;;;10029401;28;20380;-78
2023/10/26 16:41:40;;;;;;;65.70;39.45;;;;;;;;;;10026531;28;20081;-78
2023/10/26 16:46:31;;;;;;;68.90;39.28;;;;;;;;;;10028579;28;20453;-75
2023/10/26 16:51:24;;;;;;;70.28;36.95;;;;;;;;;;10027338;28;20436;-79
2023/10/26 16:56:16;;;;;;;65.20;37.83;;;;;;;;;;10027574;28;20053;-79
2023/10/26 17:01:10;;;;;;;59.75;37.03;;;;;;;;;;10043842;28;20075;-81
2023/10/26 17:06:03;;;;;;;59.05;35.33;;;;;;;;;;10044600;28;20073;-79
2023/10/26 17:10:55;;;;;;;61.83;37.25;;;;;;;;;;10030598;28;20415;-80
2023/10/26 17:15:51;;;;;;;59.58;36.97;;;;;;;;;;10025226;28;20053;-79
2023/10/26 17:20:43;;;;;;;60.60;35.33;;;;;;;;;;10026851;28;20042;-81
2023/10/26 17:25:35;;;;;;;70.00;37.85;;;;;;;;;;10027628;28;20817;-81
2023/10/26 17:30:28;;;;;;;68.40;37.65;;;;;;;;;;10028742;28;20413;-77
2023/10/26 17:35:20;;;;;;;60.00;37.28;;;;;;;;;;10024024;28;20038;-79
2023/10/26 17:40:13;;;;;;;76.78;41.20;;;;;;;;;;10025322;28;20484;-79
2023/10/26 17:45:05;;;;;;;63.97;36.95;;;;;;;;;;10025853;28;20038;-79
2023/10/26 17:49:57;;;;;;;61.35;37.50;;;;;;;;;;10023413;28;20339;-79
2023/10/26 17:54:49;;;;;;;63.92;36.58;;;;;;;;;;10029317;28;20064;-73
2023/10/26 17:59:41;;;;;;;61.40;33.53;;;;;;;;;;10038064;28;20042;-74
2023/10/26 18:04:33;;;;;;;69.18;38.08;;;;;;;;;;10045252;28;20573;-74
2023/10/26 18:09:27;;;;;;;63.75;35.20;;;;;;;;;;10062685;28;20353;-74
2023/10/26 18:14:24;;;;;;;69.28;40.05;;;;;;;;;;10036478;28;20084;-74
2023/10/26 18:19:17;;;;;;;64.63;37.95;;;;;;;;;;10038864;28;20076;-75
2023/10/26 18:24:09;;;;;;;65.78;36.58;;;;;;;;;;10035431;28;20045;-75
2023/10/26 18:29:02;;;;;;;69.80;36.08;;;;;;;;;;10027411;28;20052;-73
2023/10/26 18:33:55;;;;;;;70.15;36.65;;;;;;;;;;10027138;28;20475;-74
2023/10/26 18:38:47;;;;;;;59.67;34.33;;;;;;;;;;10061660;28;20100;-72
2023/10/26 18:43:39;;;;;;;58.92;33.67;;;;;;;;;;10065404;28;20523;-76
2023/10/26 18:48:36;;;;;;;72.22;38.30;;;;;;;;;;10064823;28;20046;-74
2023/10/26 18:53:28;;;;;;;68.13;35.95;;;;;;;;;;10070200;28;20041;-73
2023/10/26 18:58:21;;;;;;;64.78;35.80;;;;;;;;;;10060808;28;20046;-74
2023/10/26 19:03:17;;;;;;;80.05;40.20;;;;;;;;;;10056496;28;20455;-74
2023/10/26 19:08:10;;;;;;;64.28;37.38;;;;;;;;;;10058629;28;20041;-75
2023/10/26 19:13:03;;;;;;;68.60;36.80;;;;;;;;;;10069138;28;20434;-75
2023/10/26 19:17:56;;;;;;;72.07;38.50;;;;;;;;;;10046081;28;20175;-75
2023/10/26 19:22:49;;;;;;;64.18;35.88;;;;;;;;;;10065883;28;20091;-74
2023/10/26 19:27:43;;;;;;;85.82;40.80;;;;;;;;;;10048802;28;20464;-74
2023/10/26 19:32:35;;;;;;;69.43;36.90;;;;;;;;;;10057016;28;20103;-75
2023/10/26 19:37:27;;;;;;;61.00;36.75;;;;;;;;;;10068820;28;20037;-73
2023/10/26 19:42:19;;;;;;;75.22;35.80;;;;;;;;;;10056732;28;20045;-72
2023/10/26 19:47:11;;;;;;;63.33;33.70;;;;;;;;;;10052810;28;20068;-73
2023/10/26 19:52:04;;;;;;;68.55;38.35;;;;;;;;;;10063596;28;20053;-73
2023/10/26 19:56:56;;;;;;;65.70;34.20;;;;;;;;;;10065182;28;20127;-74
2023/10/26 20:01:48;;;;;;;60.95;36.65;;;;;;;;;;10067763;28;20068;-73
2023/10/26 20:06:41;;;;;;;66.90;36.20;;;;;;;;;;10065554;28;20537;-74
2023/10/26 20:11:33;;;;;;;65.15;35.65;;;;;;;;;;10064656;28;20052;-73
2023/10/26 20:16:25;;;;;;;59.10;34.13;;;;;;;;;;10065806;28;20152;-73
2023/10/26 20:21:17;;;;;;;61.38;32.20;;;;;;;;;;10065675;28;20067;-73
2023/10/26 20:26:09;;;;;;;60.25;33.42;;;;;;;;;;10066031;28;20098;-73
2023/10/26 20:31:01;;;;;;;62.15;34.28;;;;;;;;;;10065089;28;20494;-73
2023/10/26 20:35:54;;;;;;;52.85;31.45;;;;;;;;;;10070389;28;20050;-72
2023/10/26 20:40:46;;;;;;;69.18;35.33;;;;;;;;;;10063381;28;20033;-72
2023/10/26 20:45:39;;;;;;;60.35;34.53;;;;;;;;;;10061559;28;20042;-74
2023/10/26 20:50:31;;;;;;;58.88;32.92;;;;;;;;;;10060711;28;20371;-73
2023/10/26 20:55:23;;;;;;;58.30;31.45;;;;;;;;;;10059450;28;20521;-73
2023/10/26 21:00:16;;;;;;;70.10;35.15;;;;;;;;;;10061112;28;20052;-74
2023/10/26 21:05:08;;;;;;;70.40;37.35;;;;;;;;;;10060249;28;20133;-73
2023/10/26 21:10:01;;;;;;;74.82;34.83;;;;;;;;;;10053461;28;20081;-73
2023/10/26 21:14:53;;;;;;;76.28;36.95;;;;;;;;;;10051894;28;20522;-73
2023/10/26 21:19:45;;;;;;;79.32;36.13;;;;;;;;;;10056544;28;20504;-73
2023/10/26 21:24:37;;;;;;;58.00;33.55;;;;;;;;;;10064514;28;20045;-74
2023/10/26 21:29:29;;;;;;;70.15;35.63;;;;;;;;;;10063948;28;20422;-73
2023/10/26 21:34:21;;;;;;;76.53;38.35;;;;;;;;;;10064916;28;20049;-72
2023/10/26 21:39:14;;;;;;;61.28;33.92;;;;;;;;;;10061563;28;20049;-73
2023/10/26 21:44:06;;;;;;;68.53;36.15;;;;;;;;;;10060372;28;20567;-74
2023/10/26 21:48:58;;;;;;;80.57;41.63;;;;;;;;;;10029293;28;20042;-73
2023/10/26 21:53:50;;;;;;;74.30;38.38;;;;;;;;;;10027809;28;20519;-72
2023/10/26 21:58:42;;;;;;;66.60;39.83;;;;;;;;;;10027221;28;20164;-74
2023/10/26 22:03:34;;;;;;;65.40;35.47;;;;;;;;;;10035404;28;20105;-74
2023/10/26 22:08:26;;;;;;;55.47;33.70;;;;;;;;;;10032049;28;20050;-74
2023/10/26 22:13:18;;;;;;;46.35;28.48;;;;;;;;;;10027487;28;20148;-74
2023/10/26 22:18:10;;;;;;;34.13;23.83;;;;;;;;;;10041835;28;20046;-74
2023/10/26 22:23:05;;;;;;;31.60;21.88;;;;;;;;;;10027945;28;20065;-75
2023/10/26 22:27:57;;;;;;;33.03;21.40;;;;;;;;;;10027118;28;20060;-74
2023/10/26 22:32:49;;;;;;;26.40;20.55;;;;;;;;;;10026528;28;20042;-75
2023/10/26 22:37:41;;;;;;;25.63;19.13;;;;;;;;;;10036897;28;20052;-75
2023/10/26 22:42:33;;;;;;;34.45;24.25;;;;;;;;;;10027060;28;20073;-76
2023/10/26 22:47:25;;;;;;;25.38;19.85;;;;;;;;;;10025548;28;20100;-75
2023/10/26 22:52:17;;;;;;;26.45;20.23;;;;;;;;;;10025907;28;20133;-76
2023/10/26 22:57:09;;;;;;;28.92;20.52;;;;;;;;;;10041960;28;20046;-76
2023/10/26 23:02:01;;;;;;;33.47;21.70;;;;;;;;;;10025744;28;20441;-76
2023/10/26 23:06:53;;;;;;;27.40;21.08;;;;;;;;;;10043466;28;20080;-75
2023/10/26 23:11:45;;;;;;;33.42;21.42;;;;;;;;;;10041060;28;20046;-76
2023/10/26 23:16:37;;;;;;;32.45;22.38;;;;;;;;;;10027459;28;20129;-74
2023/10/26 23:21:31;;;;;;;41.15;29.83;;;;;;;;;;10033612;28;20354;-76
2023/10/26 23:26:24;;;;;;;45.50;31.17;;;;;;;;;;10024961;28;20445;-75
2023/10/26 23:31:16;;;;;;;38.88;28.83;;;;;;;;;;10036945;28;20041;-76
2023/10/26 23:36:11;;;;;;;40.55;24.48;;;;;;;;;;10045297;28;20073;-76
2023/10/26 23:41:03;;;;;;;33.92;22.83;;;;;;;;;;10059032;28;20065;-75
2023/10/26 23:45:57;;;;;;;29.65;19.63;;;;;;;;;;10047696;28;20045;-76
2023/10/26 23:50:50;;;;;;;27.85;20.02;;;;;;;;;;10035453;28;20078;-76
2023/10/26 23:55:43;;;;;;;27.48;15.57;;;;;;;;;;10033399;28;20042;-76
